[Thai A300 Charter Flight] Thai Airways A300-600R HS-TAW LANDING TOYAMA Airport 2013.5.6




2013.5.6 富山空港 TOYAMA Airport, Toyama, JAPAN
- Flight Data -
Date: Mar 6, 2013
Airline: Thai Airways International タイ国際航空 (THA/TG)
Aircraft: Airbus A300-600R
Registration No.: HS-TAW
Flight No.: TG8056 (Charter Flight)
Origin: Bangkok Suvarnabhumi International Airport (VTBS/BKK)
Destination: Toyama (RJNT/TOY)
Runway: 20
Landing: 2356Z (Mar 5)
METAR: RJNT 052300Z 17009KT 140V200 9999 FEW100 19/03 Q1012

TG8056 Inflight Cockpit Landing View

[whitewing681 YouTube Channel]
旅行・飛行機・鉄道・乗り物動画を公開中
http://www.youtube.com/user/whitewing681
[Subscribe チャンネル登録]
http://www.youtube.com/subscription_center?add_user=whitewing681
[whitewing681 YouTube Channel Blog]
http://whitewing681.blogspot.jp/

Flights

Air Charter
#<LinkAnchor:0x00000009b1cf98>

This entry was posted in Trade Flights Australia and tagged , , , , , , , , , , , , . Bookmark the permalink.